createdAt,value
2023-04-22T00:01:02.841Z,6.60
2023-04-22T00:03:05.502Z,6.97
2023-04-22T00:05:09.212Z,6.15
2023-04-22T00:07:12.624Z,5.65
2023-04-22T00:09:15.212Z,6.07
2023-04-22T00:11:18.071Z,6.55
2023-04-22T00:13:20.613Z,6.20
2023-04-22T00:15:25.479Z,5.95
2023-04-22T00:17:28.139Z,6.13
2023-04-22T00:19:30.761Z,6.55
2023-04-22T00:21:33.428Z,6.05
2023-04-22T00:23:36.005Z,6.70
2023-04-22T00:25:38.552Z,5.75
2023-04-22T00:27:41.131Z,5.30
2023-04-22T00:29:43.655Z,5.22
2023-04-22T00:31:47.679Z,5.25
2023-04-22T00:33:50.735Z,6.05
2023-04-22T00:35:54.637Z,5.82
2023-04-22T00:37:57.353Z,5.97
2023-04-22T00:39:59.914Z,5.85
2023-04-22T00:42:03.338Z,5.53
2023-04-22T00:44:09.299Z,5.25
2023-04-22T00:46:12.064Z,5.22
2023-04-22T00:48:16.039Z,5.45
2023-04-22T00:50:18.647Z,4.93
2023-04-22T00:52:21.198Z,5.43
2023-04-22T00:54:23.806Z,5.22
2023-04-22T00:56:28.310Z,4.80
2023-04-22T00:58:30.924Z,4.85
2023-04-22T01:00:33.783Z,4.65
2023-04-22T01:02:37.329Z,4.65
2023-04-22T01:04:41.500Z,5.22
2023-04-22T01:06:44.942Z,4.78
2023-04-22T01:08:47.848Z,5.00
2023-04-22T01:10:50.549Z,4.68
2023-04-22T01:12:53.145Z,4.85
2023-04-22T01:14:55.824Z,4.70
2023-04-22T01:16:58.895Z,5.57
2023-04-22T01:19:01.979Z,5.50
2023-04-22T01:21:07.072Z,5.05
2023-04-22T01:23:16.921Z,4.95
2023-04-22T01:25:19.534Z,5.07
2023-04-22T01:27:22.346Z,5.47
2023-04-22T01:29:25.560Z,5.50
2023-04-22T01:31:28.440Z,5.00
2023-04-22T01:33:31.196Z,4.68
2023-04-22T01:35:36.997Z,4.75
2023-04-22T01:37:40.358Z,5.20
2023-04-22T01:39:44.305Z,4.95
2023-04-22T01:41:47.754Z,4.80
2023-04-22T01:43:51.074Z,4.78
2023-04-22T01:45:54.630Z,5.15
2023-04-22T01:47:57.254Z,5.25
2023-04-22T01:49:59.935Z,4.30
2023-04-22T01:52:02.557Z,5.43
2023-04-22T01:54:05.677Z,4.82
2023-04-22T01:56:10.120Z,4.97
2023-04-22T01:58:12.654Z,5.10
2023-04-22T02:00:15.563Z,5.07
2023-04-22T02:02:18.168Z,4.75
2023-04-22T02:04:20.802Z,4.78
2023-04-22T02:06:23.315Z,5.38
2023-04-22T02:08:25.867Z,4.93
2023-04-22T02:10:28.378Z,5.35
2023-04-22T02:12:32.765Z,4.80
2023-04-22T02:14:35.613Z,4.97
2023-04-22T02:16:38.183Z,4.55
2023-04-22T02:18:40.920Z,5.03
2023-04-22T02:20:43.443Z,5.00
2023-04-22T02:22:46.337Z,4.65
2023-04-22T02:24:48.959Z,5.03
2023-04-22T02:26:51.676Z,4.53
2023-04-22T02:28:55.567Z,5.63
2023-04-22T02:30:58.167Z,5.07
2023-04-22T02:33:01.366Z,4.15
2023-04-22T02:35:05.261Z,5.38
2023-04-22T02:37:07.836Z,4.70
2023-04-22T02:39:10.448Z,4.10
2023-04-22T02:41:13.004Z,4.65
2023-04-22T02:43:15.530Z,4.60
2023-04-22T02:45:19.524Z,4.22
2023-04-22T02:47:23.458Z,4.57
2023-04-22T02:49:26.107Z,4.68
2023-04-22T02:51:28.907Z,4.10
2023-04-22T02:53:31.438Z,4.75
2023-04-22T02:55:33.940Z,4.25
2023-04-22T02:57:36.526Z,4.57
2023-04-22T02:59:39.279Z,4.85
2023-04-22T03:01:43.319Z,4.70
2023-04-22T03:03:46.133Z,5.00
2023-04-22T03:05:48.747Z,5.40
2023-04-22T03:07:51.343Z,5.40
2023-04-22T03:09:55.847Z,5.45
2023-04-22T03:11:58.391Z,5.28
2023-04-22T03:14:01.012Z,5.13
2023-04-22T03:16:03.603Z,4.60
2023-04-22T03:18:07.556Z,4.72
2023-04-22T03:20:11.608Z,5.45
2023-04-22T03:22:14.181Z,5.68
2023-04-22T03:24:16.734Z,5.50
2023-04-22T03:26:19.299Z,5.53
2023-04-22T03:28:21.857Z,5.82
2023-04-22T03:30:24.653Z,5.70
2023-04-22T03:32:27.203Z,5.53
2023-04-22T03:34:31.170Z,5.43
2023-04-22T03:36:33.714Z,7.07
2023-04-22T03:38:36.253Z,7.80
2023-04-22T03:40:38.813Z,7.63
2023-04-22T03:42:41.385Z,7.32
2023-04-22T03:44:43.961Z,7.47
2023-04-22T03:46:46.531Z,7.10
2023-04-22T03:48:49.626Z,7.35
2023-04-22T03:50:53.495Z,6.57
2023-04-22T03:52:56.055Z,6.20
2023-04-22T03:54:58.586Z,6.60
2023-04-22T03:57:01.529Z,7.38
2023-04-22T03:59:04.092Z,7.57
2023-04-22T04:01:06.651Z,6.68
2023-04-22T04:03:09.461Z,7.47
2023-04-22T04:05:12.415Z,6.63
2023-04-22T04:07:16.698Z,6.43
2023-04-22T04:09:19.271Z,6.43
2023-04-22T04:11:21.796Z,6.82
2023-04-22T04:13:24.322Z,6.93
2023-04-22T04:15:26.965Z,5.70
2023-04-22T04:17:29.517Z,6.00
2023-04-22T04:19:32.096Z,6.22
2023-04-22T04:21:35.092Z,6.05
2023-04-22T04:23:38.972Z,7.40
2023-04-22T04:25:42.782Z,7.15
2023-04-22T04:27:45.514Z,6.28
2023-04-22T04:29:48.065Z,6.28
2023-04-22T04:31:50.800Z,7.50
2023-04-22T04:33:53.947Z,7.65
2023-04-22T04:35:56.505Z,7.25
2023-04-22T04:37:59.268Z,7.65
2023-04-22T04:40:03.185Z,7.78
2023-04-22T04:42:05.820Z,8.18
2023-04-22T04:44:08.384Z,8.60
2023-04-22T04:46:10.986Z,7.38
2023-04-22T04:48:14.338Z,7.30
2023-04-22T04:50:16.978Z,7.72
2023-04-22T04:52:19.522Z,7.10
2023-04-22T04:54:22.106Z,7.35
2023-04-22T04:56:26.071Z,6.70
2023-04-22T04:58:28.635Z,6.50
2023-04-22T05:00:31.464Z,7.07
2023-04-22T05:02:34.124Z,6.05
2023-04-22T05:04:36.864Z,6.60
2023-04-22T05:06:39.577Z,5.97
2023-04-22T05:08:42.133Z,5.47
2023-04-22T05:10:45.109Z,6.18
2023-04-22T05:12:51.164Z,6.20
2023-04-22T05:14:54.249Z,4.88
2023-04-22T05:16:56.938Z,5.55
2023-04-22T05:18:59.526Z,6.03
2023-04-22T05:21:04.145Z,6.38
2023-04-22T05:23:06.680Z,6.43
2023-04-22T05:25:10.282Z,6.82
2023-04-22T05:27:13.079Z,6.57
2023-04-22T05:29:17.073Z,6.55
2023-04-22T05:31:19.717Z,7.10
2023-04-22T05:33:22.340Z,6.90
2023-04-22T05:35:24.926Z,6.35
2023-04-22T05:37:27.576Z,6.18
2023-04-22T05:39:30.255Z,6.93
2023-04-22T05:41:32.812Z,7.25
2023-04-22T05:43:35.373Z,7.00
2023-04-22T05:45:39.453Z,7.07
2023-04-22T05:47:42.045Z,7.15
2023-04-22T05:49:44.634Z,6.70
2023-04-22T05:51:47.328Z,5.90
2023-04-22T05:53:50.011Z,5.47
2023-04-22T05:55:52.549Z,6.00
2023-04-22T05:57:58.031Z,5.75
2023-04-22T06:00:01.339Z,5.70
2023-04-22T06:02:05.331Z,5.35
2023-04-22T06:04:10.053Z,5.68
2023-04-22T06:06:12.963Z,5.18
2023-04-22T06:08:16.144Z,5.30
2023-04-22T06:10:18.700Z,5.00
2023-04-22T06:12:21.619Z,5.05
2023-04-22T06:14:24.180Z,5.53
2023-04-22T06:16:28.794Z,4.82
2023-04-22T06:18:33.836Z,5.45
2023-04-22T06:20:37.507Z,5.20
2023-04-22T06:22:40.133Z,4.97
2023-04-22T06:24:42.919Z,5.03
2023-04-22T06:26:45.575Z,4.93
2023-04-22T06:28:48.119Z,5.20
2023-04-22T06:30:50.744Z,5.20
2023-04-22T06:32:56.066Z,5.13
2023-04-22T06:34:59.951Z,5.70
2023-04-22T06:37:02.503Z,4.93
2023-04-22T06:39:05.667Z,5.07
2023-04-22T06:41:08.204Z,4.38
2023-04-22T06:43:10.726Z,4.93
2023-04-22T06:45:13.496Z,4.97
2023-04-22T06:47:16.075Z,4.70
2023-04-22T06:49:18.599Z,4.25
2023-04-22T06:51:22.672Z,4.78
2023-04-22T06:53:25.319Z,4.85
2023-04-22T06:55:27.880Z,4.82
2023-04-22T06:57:30.553Z,4.53
2023-04-22T06:59:33.088Z,5.13
2023-04-22T07:01:35.729Z,5.00
2023-04-22T07:03:38.490Z,5.22
2023-04-22T07:05:41.196Z,5.28
2023-04-22T07:07:45.155Z,5.38
2023-04-22T07:09:47.688Z,5.75
2023-04-22T07:11:50.296Z,6.10
2023-04-22T07:13:52.806Z,5.47
2023-04-22T07:15:55.558Z,5.10
2023-04-22T07:17:58.243Z,5.35
2023-04-22T07:20:00.953Z,5.55
2023-04-22T07:22:04.197Z,5.10
2023-04-22T07:24:11.827Z,5.38
2023-04-22T07:26:14.663Z,5.35
2023-04-22T07:28:17.225Z,5.03
2023-04-22T07:30:19.833Z,5.40
2023-04-22T07:32:22.528Z,5.28
2023-04-22T07:34:25.101Z,5.55
2023-04-22T07:36:27.797Z,4.78
2023-04-22T07:38:30.385Z,5.30
2023-04-22T07:40:34.317Z,5.07
2023-04-22T07:42:38.311Z,5.28
2023-04-22T07:44:40.934Z,5.45
2023-04-22T07:46:43.551Z,5.15
2023-04-22T07:48:46.198Z,5.20
2023-04-22T07:50:48.749Z,5.35
2023-04-22T07:52:51.400Z,5.40
2023-04-22T07:54:53.953Z,5.38
2023-04-22T07:56:58.309Z,5.70
2023-04-22T07:59:00.876Z,5.30
2023-04-22T08:01:03.548Z,5.38
2023-04-22T08:03:06.484Z,5.18
2023-04-22T08:05:09.466Z,4.78
2023-04-22T08:07:30.779Z,5.10
2023-04-22T08:09:34.640Z,5.13
2023-04-22T08:11:37.376Z,5.05
2023-04-22T08:13:41.297Z,4.75
2023-04-22T08:15:43.924Z,4.82
2023-04-22T08:17:46.504Z,5.00
2023-04-22T08:19:49.469Z,4.90
2023-04-22T08:21:51.994Z,5.00
2023-04-22T08:23:55.052Z,5.22
2023-04-22T08:25:57.590Z,4.60
2023-04-22T08:28:00.158Z,4.70
2023-04-22T08:30:04.599Z,5.07
2023-04-22T08:32:07.146Z,4.85
2023-04-22T08:34:09.729Z,4.75
2023-04-22T08:36:12.364Z,4.78
2023-04-22T08:38:15.579Z,4.57
2023-04-22T08:40:18.165Z,4.50
2023-04-22T08:42:21.300Z,4.68
2023-04-22T08:44:24.466Z,4.45
2023-04-22T08:46:28.750Z,4.47
2023-04-22T08:48:31.518Z,4.30
2023-04-22T08:50:34.157Z,4.80
2023-04-22T08:52:36.808Z,4.20
2023-04-22T08:54:39.400Z,4.63
2023-04-22T08:56:44.376Z,4.15
2023-04-22T08:58:47.050Z,4.60
2023-04-22T09:00:49.676Z,4.60
2023-04-22T09:02:54.709Z,4.53
2023-04-22T09:04:57.411Z,4.55
2023-04-22T09:07:00.825Z,4.22
2023-04-22T09:09:03.418Z,3.85
2023-04-22T09:11:06.162Z,4.32
2023-04-22T09:13:08.751Z,4.18
2023-04-22T09:15:12.823Z,3.83
2023-04-22T09:17:17.011Z,3.80
2023-04-22T09:19:25.362Z,3.80
2023-04-22T09:21:28.633Z,5.13
2023-04-22T09:23:31.371Z,3.47
2023-04-22T09:25:35.993Z,3.20
2023-04-22T09:27:38.552Z,3.30
2023-04-22T09:29:49.245Z,2.88
2023-04-22T09:31:51.988Z,3.53
2023-04-22T09:33:57.512Z,3.28
2023-04-22T09:36:09.965Z,3.85
2023-04-22T09:38:13.762Z,3.60
2023-04-22T09:40:16.957Z,3.47
2023-04-22T09:42:20.123Z,3.22
2023-04-22T09:44:22.658Z,4.53
2023-04-22T09:46:26.750Z,3.35
2023-04-22T09:48:29.306Z,3.67
2023-04-22T09:50:33.904Z,3.30
2023-04-22T09:52:37.751Z,3.28
2023-04-22T09:54:40.743Z,3.42
2023-04-22T09:56:48.052Z,3.47
2023-04-22T09:58:53.740Z,3.30
2023-04-22T10:00:57.777Z,3.47
2023-04-22T10:03:00.728Z,3.38
2023-04-22T10:05:03.544Z,3.40
2023-04-22T10:07:06.976Z,3.58
2023-04-22T10:09:12.252Z,3.20
2023-04-22T10:11:15.020Z,3.80
2023-04-22T10:13:17.627Z,2.85
2023-04-22T10:15:20.438Z,2.90
2023-04-22T10:17:23.468Z,3.50
2023-04-22T10:19:27.321Z,2.92
2023-04-22T10:21:32.335Z,2.67
2023-04-22T10:23:34.975Z,2.80
2023-04-22T10:25:41.274Z,3.08
2023-04-22T10:27:43.854Z,2.53
2023-04-22T10:29:46.423Z,2.50
2023-04-22T10:31:56.904Z,2.65
2023-04-22T10:34:10.455Z,3.00
2023-04-22T10:36:18.100Z,2.50
2023-04-22T10:38:20.671Z,2.67
2023-04-22T10:40:23.797Z,2.38
2023-04-22T10:42:29.635Z,2.28
2023-04-22T10:44:47.494Z,2.78
2023-04-22T10:47:00.995Z,2.63
2023-04-22T10:49:08.142Z,2.53
2023-04-22T10:51:39.384Z,2.53
2023-04-22T10:53:42.724Z,2.80
2023-04-22T10:55:53.026Z,3.10
2023-04-22T10:57:57.077Z,2.95
2023-04-22T11:00:00.351Z,2.45
2023-04-22T11:02:03.582Z,2.22
2023-04-22T11:04:22.984Z,2.03
2023-04-22T11:06:27.884Z,2.60
2023-04-22T11:08:30.426Z,2.17
2023-04-22T11:10:42.985Z,1.90
2023-04-22T11:12:46.486Z,1.77
2023-04-22T11:14:51.027Z,1.70
2023-04-22T11:16:53.847Z,1.98
2023-04-22T11:18:57.672Z,2.20
2023-04-22T11:21:06.230Z,1.90
2023-04-22T11:23:08.820Z,2.03
2023-04-22T11:25:12.119Z,2.00
2023-04-22T11:27:14.672Z,2.28
2023-04-22T11:29:17.202Z,1.83
2023-04-22T11:31:21.518Z,2.13
2023-04-22T11:33:24.137Z,2.08
2023-04-22T11:35:29.142Z,1.90
2023-04-22T11:37:31.706Z,2.38
2023-04-22T11:39:43.588Z,2.00
2023-04-22T11:41:52.927Z,2.20
2023-04-22T11:43:55.701Z,1.90
2023-04-22T11:45:58.846Z,2.22
2023-04-22T11:48:04.276Z,2.33
2023-04-22T11:50:09.991Z,2.17
2023-04-22T11:52:12.582Z,2.40
2023-04-22T11:54:15.132Z,1.90
2023-04-22T11:56:17.684Z,2.13
2023-04-22T11:58:24.757Z,5.25
2023-04-22T12:00:31.463Z,2.15
2023-04-22T12:02:34.153Z,4.05
2023-04-22T12:04:39.776Z,4.78
2023-04-22T12:06:42.432Z,1.80
2023-04-22T12:08:47.280Z,1.85
2023-04-22T12:10:51.676Z,2.15
2023-04-22T12:12:55.384Z,2.17
2023-04-22T12:14:58.888Z,2.30
2023-04-22T12:17:05.279Z,2.55
2023-04-22T12:19:07.934Z,1.80
2023-04-22T12:21:13.020Z,2.00
2023-04-22T12:23:16.662Z,2.10
2023-04-22T12:25:20.403Z,3.10
2023-04-22T12:27:22.974Z,5.38
2023-04-22T12:29:31.141Z,2.40
2023-04-22T12:31:33.942Z,2.13
2023-04-22T12:33:37.620Z,2.15
2023-04-22T12:35:40.232Z,2.72
2023-04-22T12:37:44.377Z,1.95
2023-04-22T12:39:47.021Z,2.13
2023-04-22T12:41:50.992Z,1.80
2023-04-22T12:43:55.173Z,2.47
2023-04-22T12:45:57.759Z,2.40
2023-04-22T12:48:00.626Z,2.40
2023-04-22T12:50:06.407Z,2.03
2023-04-22T12:52:08.923Z,2.20
2023-04-22T12:54:12.802Z,2.08
2023-04-22T12:56:15.507Z,1.83
2023-04-22T12:58:18.637Z,2.22
2023-04-22T13:00:21.729Z,2.38
2023-04-22T13:02:24.420Z,2.47
2023-04-22T13:04:27.151Z,2.03
2023-04-22T13:06:29.915Z,2.45
2023-04-22T13:08:32.507Z,1.90
2023-04-22T13:10:36.584Z,2.30
2023-04-22T13:12:39.868Z,1.98
2023-04-22T13:14:42.710Z,2.08
2023-04-22T13:16:45.691Z,2.25
2023-04-22T13:18:48.239Z,2.13
2023-04-22T13:20:51.126Z,2.20
2023-04-22T13:22:53.805Z,2.17
2023-04-22T13:24:56.507Z,2.22
2023-04-22T13:27:01.424Z,2.22
2023-04-22T13:29:04.069Z,2.03
2023-04-22T13:31:06.684Z,2.13
2023-04-22T13:33:09.222Z,2.55
2023-04-22T13:35:11.814Z,2.53
2023-04-22T13:37:16.344Z,2.30
2023-04-22T13:39:20.657Z,2.72
2023-04-22T13:41:23.534Z,2.90
2023-04-22T13:43:27.475Z,2.40
2023-04-22T13:45:30.157Z,2.08
2023-04-22T13:47:32.768Z,2.10
2023-04-22T13:49:35.915Z,2.72
2023-04-22T13:51:39.615Z,2.35
2023-04-22T13:53:42.201Z,2.70
2023-04-22T13:55:44.787Z,3.10
2023-04-22T13:57:47.627Z,2.50
2023-04-22T13:59:51.590Z,2.78
2023-04-22T14:01:54.136Z,2.50
2023-04-22T14:03:57.032Z,2.30
2023-04-22T14:06:01.026Z,2.28
2023-04-22T14:08:03.600Z,2.90
2023-04-22T14:10:08.419Z,2.30
2023-04-22T14:12:12.106Z,2.80
2023-04-22T14:14:14.677Z,3.25
2023-04-22T14:16:19.591Z,3.17
2023-04-22T14:18:23.357Z,3.63
2023-04-22T14:20:26.088Z,2.95
2023-04-22T14:22:28.635Z,3.00
2023-04-22T14:24:31.634Z,3.08
2023-04-22T14:26:34.228Z,3.45
2023-04-22T14:28:37.771Z,3.97
2023-04-22T14:30:40.547Z,4.47
2023-04-22T14:32:45.084Z,4.00
2023-04-22T14:34:47.794Z,3.40
2023-04-22T14:36:50.480Z,3.78
2023-04-22T14:38:53.083Z,2.60
2023-04-22T14:40:55.662Z,2.25
2023-04-22T14:42:59.482Z,2.30
2023-04-22T14:45:02.082Z,1.98
2023-04-22T14:47:04.817Z,2.70
2023-04-22T14:49:08.742Z,2.60
2023-04-22T14:51:11.993Z,2.20
2023-04-22T14:53:14.631Z,2.08
2023-04-22T14:55:23.315Z,1.73
2023-04-22T14:57:26.525Z,1.75
2023-04-22T14:59:29.079Z,1.77
2023-04-22T15:01:32.729Z,2.10
2023-04-22T15:03:36.103Z,1.90
2023-04-22T15:05:43.178Z,1.98
2023-04-22T15:07:45.749Z,1.92
2023-04-22T15:09:48.279Z,2.22
2023-04-22T15:11:51.067Z,2.58
2023-04-22T15:13:53.616Z,2.13
2023-04-22T15:15:56.161Z,2.08
2023-04-22T15:17:58.896Z,2.20
2023-04-22T15:20:05.245Z,2.20
2023-04-22T15:22:10.046Z,1.95
2023-04-22T15:24:12.607Z,2.20
2023-04-22T15:26:15.769Z,1.73
2023-04-22T15:28:18.411Z,2.13
2023-04-22T15:30:20.947Z,3.45
2023-04-22T15:32:23.480Z,2.42
2023-04-22T15:34:26.125Z,2.50
2023-04-22T15:36:28.799Z,2.20
2023-04-22T15:38:32.678Z,1.80
2023-04-22T15:40:35.259Z,1.98
2023-04-22T15:42:37.841Z,2.20
2023-04-22T15:44:40.684Z,2.20
2023-04-22T15:46:43.422Z,2.00
2023-04-22T15:48:47.317Z,2.03
2023-04-22T15:50:49.844Z,2.65
2023-04-22T15:52:52.401Z,2.10
2023-04-22T15:54:56.385Z,2.20
2023-04-22T15:56:58.957Z,1.92
2023-04-22T15:59:01.570Z,1.98
2023-04-22T16:01:15.342Z,1.90
2023-04-22T16:03:21.249Z,2.10
2023-04-22T16:05:24.944Z,2.53
2023-04-22T16:07:27.993Z,2.10
2023-04-22T16:09:30.560Z,2.40
2023-04-22T16:11:34.432Z,2.47
2023-04-22T16:13:38.820Z,2.25
2023-04-22T16:15:41.663Z,2.28
2023-04-22T16:17:44.378Z,2.38
2023-04-22T16:19:46.994Z,2.00
2023-04-22T16:21:52.232Z,2.20
2023-04-22T16:23:54.765Z,2.03
2023-04-22T16:25:58.398Z,2.20
2023-04-22T16:28:04.909Z,2.90
2023-04-22T16:30:08.719Z,2.40
2023-04-22T16:32:11.286Z,2.13
2023-04-22T16:34:13.880Z,2.33
2023-04-22T16:36:16.488Z,2.20
2023-04-22T16:38:19.059Z,2.60
2023-04-22T16:40:21.858Z,2.50
2023-04-22T16:42:24.477Z,2.47
2023-04-22T16:44:28.319Z,2.22
2023-04-22T16:46:30.909Z,2.17
2023-04-22T16:48:33.565Z,3.00
2023-04-22T16:50:36.142Z,2.60
2023-04-22T16:52:38.696Z,2.60
2023-04-22T16:54:42.437Z,2.50
2023-04-22T16:56:44.989Z,2.67
2023-04-22T16:58:47.542Z,2.30
2023-04-22T17:00:51.483Z,3.30
2023-04-22T17:02:54.140Z,2.50
2023-04-22T17:04:56.740Z,2.47
2023-04-22T17:06:59.263Z,2.80
2023-04-22T17:09:01.779Z,2.25
2023-04-22T17:11:04.459Z,2.30
2023-04-22T17:13:07.218Z,2.17
2023-04-22T17:15:10.373Z,2.17
2023-04-22T17:17:14.635Z,2.63
2023-04-22T17:19:17.163Z,2.58
2023-04-22T17:21:19.820Z,2.25
2023-04-22T17:23:22.998Z,2.22
2023-04-22T17:25:25.550Z,2.22
2023-04-22T17:27:28.169Z,2.50
2023-04-22T17:29:30.829Z,2.47
2023-04-22T17:31:34.147Z,2.38
2023-04-22T17:33:38.072Z,2.85
2023-04-22T17:35:40.596Z,2.75
2023-04-22T17:37:43.147Z,3.30
2023-04-22T17:39:45.704Z,3.60
2023-04-22T17:41:48.287Z,3.30
2023-04-22T17:43:51.175Z,3.13
2023-04-22T17:45:53.807Z,3.22
2023-04-22T17:47:56.510Z,2.80
2023-04-22T17:50:00.871Z,2.92
2023-04-22T17:52:03.407Z,3.28
2023-04-22T17:54:06.091Z,3.00
2023-04-22T17:56:08.713Z,3.13
2023-04-22T17:58:11.300Z,3.03
2023-04-22T18:00:15.399Z,3.13
2023-04-22T18:02:18.038Z,2.70
2023-04-22T18:04:21.031Z,2.92
2023-04-22T18:06:25.063Z,2.90
2023-04-22T18:08:28.024Z,2.70
2023-04-22T18:10:31.403Z,2.78
2023-04-22T18:12:35.088Z,2.80
2023-04-22T18:14:37.661Z,2.60
2023-04-22T18:16:40.248Z,2.92
2023-04-22T18:18:42.925Z,2.90
2023-04-22T18:20:45.658Z,2.53
2023-04-22T18:22:51.985Z,2.50
2023-04-22T18:24:54.566Z,2.75
2023-04-22T18:26:57.118Z,2.38
2023-04-22T18:28:59.658Z,3.10
2023-04-22T18:31:02.290Z,2.55
2023-04-22T18:33:05.394Z,2.60
2023-04-22T18:35:09.181Z,3.00
2023-04-22T18:37:11.704Z,2.53
2023-04-22T18:39:16.464Z,2.47
2023-04-22T18:41:19.030Z,2.70
2023-04-22T18:43:21.620Z,3.05
2023-04-22T18:45:24.231Z,2.83
2023-04-22T18:47:26.898Z,2.90
2023-04-22T18:49:33.482Z,2.60
2023-04-22T18:51:36.302Z,2.83
2023-04-22T18:53:38.830Z,2.85
2023-04-22T18:55:42.718Z,2.72
2023-04-22T18:57:45.244Z,2.90
2023-04-22T18:59:48.429Z,3.35
2023-04-22T19:01:51.119Z,3.88
2023-04-22T19:03:54.942Z,2.97
2023-04-22T19:05:57.614Z,3.15
2023-04-22T19:08:00.181Z,3.00
2023-04-22T19:10:02.795Z,2.83
2023-04-22T19:12:14.286Z,3.10
2023-04-22T19:14:17.357Z,2.67
2023-04-22T19:16:20.056Z,4.03
2023-04-22T19:18:22.657Z,3.00
2023-04-22T19:20:25.413Z,3.53
2023-04-22T19:22:29.224Z,3.38
2023-04-22T19:24:33.775Z,3.40
2023-04-22T19:26:38.910Z,3.40
2023-04-22T19:28:47.044Z,3.45
2023-04-22T19:30:49.664Z,3.67
2023-04-22T19:32:52.242Z,3.42
2023-04-22T19:34:55.061Z,3.88
2023-04-22T19:36:57.598Z,3.53
2023-04-22T19:39:00.237Z,3.95
2023-04-22T19:41:03.256Z,3.95
2023-04-22T19:43:05.776Z,3.80
2023-04-22T19:45:11.404Z,4.00
2023-04-22T19:47:15.360Z,4.47
2023-04-22T19:49:18.556Z,4.25
2023-04-22T19:51:22.308Z,4.25
2023-04-22T19:53:25.539Z,4.03
2023-04-22T19:55:28.328Z,3.90
2023-04-22T19:57:31.373Z,4.38
2023-04-22T19:59:34.809Z,4.15
2023-04-22T20:01:39.355Z,4.45
2023-04-22T20:03:43.430Z,4.25
2023-04-22T20:05:47.090Z,5.50
2023-04-22T20:07:50.736Z,5.03
2023-04-22T20:09:54.103Z,4.82
2023-04-22T20:11:57.042Z,4.07
2023-04-22T20:14:00.328Z,4.35
2023-04-22T20:16:03.888Z,5.00
2023-04-22T20:18:09.252Z,5.07
2023-04-22T20:20:15.162Z,5.38
2023-04-22T20:22:18.626Z,4.88
2023-04-22T20:24:21.913Z,5.20
2023-04-22T20:26:25.278Z,4.85
2023-04-22T20:28:43.403Z,5.25
2023-04-22T20:30:46.610Z,5.50
2023-04-22T20:32:49.395Z,5.30
2023-04-22T20:34:54.059Z,4.95
2023-04-22T20:36:56.723Z,5.57
2023-04-22T20:39:05.134Z,5.70
2023-04-22T20:41:09.793Z,5.60
2023-04-22T20:43:12.915Z,5.22
2023-04-22T20:45:17.830Z,5.10
2023-04-22T20:47:20.667Z,5.10
2023-04-22T20:49:23.230Z,4.93
2023-04-22T20:51:28.343Z,5.15
2023-04-22T20:53:30.964Z,5.28
2023-04-22T20:55:35.644Z,5.05
2023-04-22T20:57:39.628Z,5.47
2023-04-22T20:59:42.241Z,6.70
2023-04-22T21:01:45.232Z,6.10
2023-04-22T21:03:51.730Z,5.32
2023-04-22T21:05:54.731Z,4.93
2023-04-22T21:08:01.550Z,5.07
2023-04-22T21:10:04.606Z,4.68
2023-04-22T21:12:08.052Z,4.60
2023-04-22T21:14:11.599Z,5.00
2023-04-22T21:16:14.849Z,5.63
2023-04-22T21:18:22.024Z,5.38
2023-04-22T21:20:27.019Z,5.72
2023-04-22T21:22:30.521Z,4.70
2023-04-22T21:24:35.767Z,5.32
2023-04-22T21:26:40.045Z,5.38
2023-04-22T21:28:44.392Z,5.95
2023-04-22T21:30:47.510Z,5.57
2023-04-22T21:32:50.092Z,5.28
2023-04-22T21:34:52.873Z,5.47
2023-04-22T21:36:55.448Z,5.65
2023-04-22T21:38:58.457Z,6.65
2023-04-22T21:41:02.405Z,5.90
2023-04-22T21:43:06.099Z,5.85
2023-04-22T21:45:09.434Z,5.65
2023-04-22T21:47:11.969Z,5.53
2023-04-22T21:49:14.523Z,5.15
2023-04-22T21:51:17.121Z,5.70
2023-04-22T21:53:20.657Z,5.60
2023-04-22T21:55:23.386Z,5.30
2023-04-22T21:57:27.376Z,5.40
2023-04-22T21:59:29.993Z,5.78
2023-04-22T22:01:32.878Z,5.40
2023-04-22T22:03:36.273Z,5.82
2023-04-22T22:05:39.299Z,5.68
2023-04-22T22:07:42.215Z,5.07
2023-04-22T22:09:45.090Z,5.82
2023-04-22T22:11:47.624Z,5.22
2023-04-22T22:13:51.912Z,5.50
2023-04-22T22:15:57.140Z,5.28
2023-04-22T22:17:59.767Z,5.13
2023-04-22T22:20:02.564Z,5.60
2023-04-22T22:22:05.188Z,5.65
2023-04-22T22:24:10.541Z,5.10
2023-04-22T22:26:13.246Z,4.03
2023-04-22T22:28:15.808Z,3.95
2023-04-22T22:30:21.663Z,3.25
2023-04-22T22:32:24.268Z,3.83
2023-04-22T22:34:26.806Z,3.35
2023-04-22T22:36:29.320Z,3.88
2023-04-22T22:38:31.910Z,2.90
2023-04-22T22:40:34.461Z,2.95
2023-04-22T22:42:37.110Z,3.45
2023-04-22T22:44:39.790Z,2.85
2023-04-22T22:46:43.889Z,3.00
2023-04-22T22:48:46.505Z,2.60
2023-04-22T22:50:49.068Z,2.85
2023-04-22T22:52:51.734Z,2.85
2023-04-22T22:54:54.387Z,2.75
2023-04-22T22:56:57.721Z,3.00
2023-04-22T22:59:00.567Z,3.13
2023-04-22T23:01:03.205Z,2.90
2023-04-22T23:03:07.400Z,3.05
2023-04-22T23:05:11.097Z,2.72
2023-04-22T23:07:14.614Z,3.10
2023-04-22T23:09:19.010Z,2.75
2023-04-22T23:11:21.580Z,2.67
2023-04-22T23:13:24.128Z,2.63
2023-04-22T23:15:28.859Z,2.92
2023-04-22T23:17:31.449Z,2.53
2023-04-22T23:19:36.018Z,2.78
2023-04-22T23:21:39.857Z,3.40
2023-04-22T23:23:42.677Z,2.95
2023-04-22T23:25:46.511Z,2.75
2023-04-22T23:27:49.688Z,3.35
2023-04-22T23:29:52.790Z,2.83
2023-04-22T23:31:57.393Z,3.10
2023-04-22T23:34:03.361Z,2.95
2023-04-22T23:36:10.376Z,2.70
2023-04-22T23:38:12.918Z,3.00
2023-04-22T23:40:15.533Z,3.00
2023-04-22T23:42:18.058Z,3.00
2023-04-22T23:44:20.877Z,2.90
2023-04-22T23:46:23.617Z,2.65
2023-04-22T23:48:26.191Z,3.33
2023-04-22T23:50:29.563Z,3.00
2023-04-22T23:52:37.343Z,2.88
2023-04-22T23:54:40.799Z,2.90
2023-04-22T23:56:44.336Z,3.22
2023-04-22T23:58:47.362Z,2.80
